createdAt,value
2016-12-11T00:00:17.872Z,22.79
2016-12-11T00:00:43.859Z,22.91
2016-12-11T00:01:09.839Z,22.97
2016-12-11T00:01:35.824Z,22.86
2016-12-11T00:02:01.818Z,22.85
2016-12-11T00:02:27.801Z,22.82
2016-12-11T00:02:53.792Z,22.85
2016-12-11T00:03:19.905Z,22.79
2016-12-11T00:03:45.897Z,22.81
2016-12-11T00:04:12.037Z,22.81
2016-12-11T00:04:38.035Z,22.82
2016-12-11T00:05:04.021Z,22.85
2016-12-11T00:05:30.002Z,22.81
2016-12-11T00:05:55.987Z,22.76
2016-12-11T00:06:21.985Z,22.85
2016-12-11T00:06:47.983Z,22.86
2016-12-11T00:07:13.991Z,22.84
2016-12-11T00:07:39.950Z,22.85
2016-12-11T00:08:05.936Z,22.79
2016-12-11T00:08:31.921Z,22.81
2016-12-11T00:08:57.912Z,22.78
2016-12-11T00:09:23.898Z,22.76
2016-12-11T00:09:49.885Z,22.84
2016-12-11T00:10:15.869Z,22.78
2016-12-11T00:10:41.857Z,22.79
2016-12-11T00:11:07.842Z,22.81
2016-12-11T00:11:33.823Z,22.82
2016-12-11T00:11:59.810Z,22.78
2016-12-11T00:12:25.799Z,22.82
2016-12-11T00:12:51.797Z,22.82
2016-12-11T00:13:17.795Z,22.76
2016-12-11T00:13:43.779Z,22.84
2016-12-11T00:14:09.761Z,22.84
2016-12-11T00:14:35.745Z,22.85
2016-12-11T00:15:01.734Z,22.82
2016-12-11T00:15:27.718Z,22.71
2016-12-11T00:15:53.699Z,22.86
2016-12-11T00:16:19.683Z,22.81
2016-12-11T00:16:45.667Z,22.82
2016-12-11T00:17:11.654Z,22.85
2016-12-11T00:17:37.635Z,22.78
2016-12-11T00:18:03.620Z,22.78
2016-12-11T00:18:29.616Z,22.71
2016-12-11T00:18:55.607Z,22.75
2016-12-11T00:19:21.590Z,22.7
2016-12-11T00:19:47.573Z,22.71
2016-12-11T00:20:13.557Z,22.84
2016-12-11T00:20:39.543Z,22.86
2016-12-11T00:21:05.526Z,22.78
2016-12-11T00:21:31.512Z,22.85
2016-12-11T00:21:57.493Z,22.75
2016-12-11T00:22:23.478Z,22.71
2016-12-11T00:22:49.461Z,22.84
2016-12-11T00:23:15.447Z,22.76
2016-12-11T00:23:41.430Z,22.73
2016-12-11T00:24:07.419Z,22.7
2016-12-11T00:24:33.416Z,22.81
2016-12-11T00:24:59.399Z,22.73
2016-12-11T00:25:25.385Z,22.75
2016-12-11T00:25:51.372Z,22.73
2016-12-11T00:26:17.365Z,22.76
2016-12-11T00:26:43.343Z,22.76
2016-12-11T00:27:09.328Z,22.81
2016-12-11T00:27:35.311Z,22.78
2016-12-11T00:28:01.330Z,22.69
2016-12-11T00:28:27.289Z,22.71
2016-12-11T00:28:53.295Z,22.7
2016-12-11T00:29:19.289Z,22.75
2016-12-11T00:29:45.273Z,22.71
2016-12-11T00:30:11.260Z,22.76
2016-12-11T00:30:37.248Z,22.76
2016-12-11T00:31:03.238Z,22.67
2016-12-11T00:31:29.244Z,22.75
2016-12-11T00:31:55.230Z,22.7
2016-12-11T00:32:21.232Z,22.81
2016-12-11T00:32:47.212Z,22.78
2016-12-11T00:33:13.195Z,22.78
2016-12-11T00:33:39.179Z,22.75
2016-12-11T00:34:05.161Z,22.78
2016-12-11T00:34:31.149Z,22.78
2016-12-11T00:34:57.184Z,22.71
2016-12-11T00:35:23.167Z,22.78
2016-12-11T00:35:49.169Z,22.69
2016-12-11T00:36:15.166Z,22.69
2016-12-11T00:36:41.175Z,22.73
2016-12-11T00:37:07.160Z,22.76
2016-12-11T00:37:33.195Z,22.79
2016-12-11T00:37:59.186Z,22.73
2016-12-11T00:38:25.172Z,22.7
2016-12-11T00:38:51.168Z,22.71
2016-12-11T00:39:17.189Z,22.7
2016-12-11T00:39:43.215Z,22.66
2016-12-11T00:40:09.200Z,22.78
2016-12-11T00:40:35.182Z,22.7
2016-12-11T00:41:01.168Z,22.75
2016-12-11T00:41:27.159Z,22.76
2016-12-11T00:41:53.147Z,22.75
2016-12-11T00:42:19.128Z,22.79
2016-12-11T00:42:45.113Z,22.76
2016-12-11T00:43:11.104Z,22.73
2016-12-11T00:43:37.090Z,22.75
2016-12-11T00:44:03.074Z,22.73
2016-12-11T00:44:29.063Z,22.76
2016-12-11T00:44:55.060Z,22.79
2016-12-11T00:45:21.054Z,22.71
2016-12-11T00:45:47.048Z,22.76
2016-12-11T00:46:13.027Z,22.79
2016-12-11T00:46:39.011Z,22.75
2016-12-11T00:47:04.997Z,22.75
2016-12-11T00:47:30.977Z,22.7
2016-12-11T00:47:56.963Z,22.75
2016-12-11T00:48:22.960Z,22.67
2016-12-11T00:48:48.945Z,22.76
2016-12-11T00:49:14.956Z,22.78
2016-12-11T00:49:40.934Z,22.76
2016-12-11T00:50:06.925Z,22.76
2016-12-11T00:50:32.907Z,22.73
2016-12-11T00:50:58.894Z,22.7
2016-12-11T00:51:25.080Z,22.76
2016-12-11T00:51:51.236Z,22.71
2016-12-11T00:52:17.222Z,22.73
2016-12-11T00:52:43.205Z,22.76
2016-12-11T00:53:09.191Z,22.73
2016-12-11T00:53:35.174Z,22.71
2016-12-11T00:54:01.164Z,22.73
2016-12-11T00:54:27.147Z,22.73
2016-12-11T00:54:53.203Z,22.75
2016-12-11T00:55:19.104Z,22.76
2016-12-11T00:55:45.092Z,22.73
2016-12-11T00:56:11.083Z,22.71
2016-12-11T00:56:37.068Z,22.75
2016-12-11T00:57:03.054Z,22.71
2016-12-11T00:57:29.040Z,22.73
2016-12-11T00:57:55.023Z,22.75
2016-12-11T00:58:21.007Z,22.69
2016-12-11T00:58:46.989Z,22.7
2016-12-11T00:59:12.974Z,22.73
2016-12-11T00:59:38.958Z,22.75
2016-12-11T01:00:04.981Z,22.73
2016-12-11T01:00:30.966Z,22.71
2016-12-11T01:00:56.950Z,22.7
2016-12-11T01:01:22.932Z,22.79
2016-12-11T01:01:48.913Z,22.76
2016-12-11T01:02:14.900Z,22.75
2016-12-11T01:02:40.890Z,22.7
2016-12-11T01:03:06.880Z,22.75
2016-12-11T01:03:32.862Z,22.79
2016-12-11T01:03:58.868Z,22.7
2016-12-11T01:04:24.849Z,22.71
2016-12-11T01:04:50.833Z,22.64
2016-12-11T01:05:16.824Z,22.71
2016-12-11T01:05:42.803Z,22.7
2016-12-11T01:06:08.809Z,22.69
2016-12-11T01:06:34.793Z,22.73
2016-12-11T01:07:00.777Z,22.7
2016-12-11T01:07:26.762Z,22.75
2016-12-11T01:07:52.748Z,22.7
2016-12-11T01:08:18.754Z,22.75
2016-12-11T01:08:44.741Z,22.75
2016-12-11T01:09:10.724Z,22.67
2016-12-11T01:09:36.708Z,22.76
2016-12-11T01:10:02.694Z,22.73
2016-12-11T01:10:28.708Z,22.7
2016-12-11T01:10:54.704Z,22.7
2016-12-11T01:11:20.692Z,22.73
2016-12-11T01:11:46.688Z,22.76
2016-12-11T01:12:12.660Z,22.78
2016-12-11T01:12:38.685Z,22.76
2016-12-11T01:13:04.664Z,22.7
2016-12-11T01:13:30.642Z,22.7
2016-12-11T01:13:56.636Z,22.69
2016-12-11T01:14:22.618Z,22.71
2016-12-11T01:14:48.611Z,22.76
2016-12-11T01:15:14.600Z,22.79
2016-12-11T01:15:40.583Z,22.7
2016-12-11T01:16:06.568Z,22.67
2016-12-11T01:16:32.552Z,22.67
2016-12-11T01:16:58.556Z,22.73
2016-12-11T01:17:24.543Z,22.7
2016-12-11T01:17:50.526Z,22.75
2016-12-11T01:18:16.516Z,22.75
2016-12-11T01:18:42.518Z,22.7
2016-12-11T01:19:08.507Z,22.75
2016-12-11T01:19:34.491Z,22.7
2016-12-11T01:20:00.478Z,22.7
2016-12-11T01:20:26.464Z,22.71
2016-12-11T01:20:52.449Z,22.71
2016-12-11T01:21:18.434Z,22.66
2016-12-11T01:21:44.418Z,22.66
2016-12-11T01:22:10.405Z,22.75
2016-12-11T01:22:36.390Z,22.7
2016-12-11T01:23:02.382Z,22.75
2016-12-11T01:23:28.366Z,22.67
2016-12-11T01:23:54.351Z,22.66
2016-12-11T01:24:20.365Z,22.75
2016-12-11T01:24:46.353Z,22.7
2016-12-11T01:25:12.341Z,22.75
2016-12-11T01:25:38.331Z,22.7
2016-12-11T01:26:04.320Z,22.7
2016-12-11T01:26:30.302Z,22.73
2016-12-11T01:26:56.288Z,22.69
2016-12-11T01:27:22.282Z,22.71
2016-12-11T01:27:48.257Z,22.7
2016-12-11T01:28:14.238Z,22.73
2016-12-11T01:28:40.227Z,22.66
2016-12-11T01:29:06.241Z,22.73
2016-12-11T01:29:32.227Z,22.69
2016-12-11T01:29:58.214Z,22.67
2016-12-11T01:30:24.197Z,22.69
2016-12-11T01:30:50.197Z,22.73
2016-12-11T01:31:16.181Z,22.69
2016-12-11T01:31:42.166Z,22.71
2016-12-11T01:32:08.151Z,22.7
2016-12-11T01:32:34.134Z,22.7
2016-12-11T01:33:00.128Z,22.69
2016-12-11T01:33:26.113Z,22.63
2016-12-11T01:33:52.095Z,22.7
2016-12-11T01:34:18.083Z,22.71
2016-12-11T01:34:44.067Z,22.59
2016-12-11T01:35:10.058Z,22.63
2016-12-11T01:35:36.042Z,22.73
2016-12-11T01:36:02.024Z,22.7
2016-12-11T01:36:28.007Z,22.69
2016-12-11T01:36:53.991Z,22.71
2016-12-11T01:37:19.973Z,22.69
2016-12-11T01:37:45.957Z,22.69
2016-12-11T01:38:11.979Z,22.67
2016-12-11T01:38:37.964Z,22.66
2016-12-11T01:39:03.957Z,22.73
2016-12-11T01:39:29.942Z,22.75
2016-12-11T01:39:55.942Z,22.71
2016-12-11T01:40:21.927Z,22.71
2016-12-11T01:40:47.920Z,22.63
2016-12-11T01:41:13.905Z,22.63
2016-12-11T01:41:39.886Z,22.63
2016-12-11T01:42:05.884Z,22.67
2016-12-11T01:42:31.871Z,22.71
2016-12-11T01:42:57.856Z,22.57
2016-12-11T01:43:23.843Z,22.64
2016-12-11T01:43:49.838Z,22.66
2016-12-11T01:44:15.810Z,22.57
2016-12-11T01:44:41.797Z,22.67
2016-12-11T01:45:07.781Z,22.61
2016-12-11T01:45:33.769Z,22.7
2016-12-11T01:45:59.756Z,22.61
2016-12-11T01:46:25.752Z,22.69
2016-12-11T01:46:51.754Z,22.71
2016-12-11T01:47:17.737Z,22.78
2016-12-11T01:47:43.751Z,22.59
2016-12-11T01:48:09.737Z,22.59
2016-12-11T01:48:35.719Z,22.63
2016-12-11T01:49:01.721Z,22.61
2016-12-11T01:49:27.705Z,22.61
2016-12-11T01:49:53.737Z,22.71
2016-12-11T01:50:19.717Z,22.59
2016-12-11T01:50:45.701Z,22.61
2016-12-11T01:51:11.686Z,22.61
2016-12-11T01:51:37.669Z,22.64
2016-12-11T01:52:03.652Z,22.69
2016-12-11T01:52:29.644Z,22.67
2016-12-11T01:52:55.629Z,22.61
2016-12-11T01:53:21.612Z,22.7
2016-12-11T01:53:47.600Z,22.61
2016-12-11T01:54:13.586Z,22.71
2016-12-11T01:54:39.573Z,22.63
2016-12-11T01:55:05.568Z,22.61
2016-12-11T01:55:31.551Z,22.61
2016-12-11T01:55:57.534Z,22.59
2016-12-11T01:56:23.522Z,22.69
2016-12-11T01:56:49.504Z,22.6
2016-12-11T01:57:15.488Z,22.59
2016-12-11T01:57:41.473Z,22.63
2016-12-11T01:58:07.459Z,22.75
2016-12-11T01:58:33.448Z,22.61
2016-12-11T01:58:59.434Z,22.64
2016-12-11T01:59:25.419Z,22.71
2016-12-11T01:59:51.411Z,22.61
2016-12-11T02:00:17.401Z,22.6
2016-12-11T02:00:43.391Z,22.6
2016-12-11T02:01:09.379Z,22.66
2016-12-11T02:01:35.360Z,22.61
2016-12-11T02:02:01.347Z,22.63
2016-12-11T02:02:27.329Z,22.64
2016-12-11T02:02:53.329Z,22.66
2016-12-11T02:03:19.322Z,22.63
2016-12-11T02:03:45.300Z,22.61
2016-12-11T02:04:11.295Z,22.64
2016-12-11T02:04:37.279Z,22.63
2016-12-11T02:05:03.263Z,22.6
2016-12-11T02:05:29.274Z,22.61
2016-12-11T02:05:55.232Z,22.59
2016-12-11T02:06:21.215Z,22.61
2016-12-11T02:06:47.201Z,22.64
2016-12-11T02:07:13.189Z,22.61
2016-12-11T02:07:39.187Z,22.57
2016-12-11T02:08:05.164Z,22.6
2016-12-11T02:08:31.152Z,22.64
2016-12-11T02:08:57.136Z,22.66
2016-12-11T02:09:23.125Z,22.61
2016-12-11T02:09:49.122Z,22.63
2016-12-11T02:10:15.094Z,22.6
2016-12-11T02:10:41.082Z,22.63
2016-12-11T02:11:07.068Z,22.63
2016-12-11T02:11:33.056Z,22.57
2016-12-11T02:11:59.041Z,22.63
2016-12-11T02:12:25.041Z,22.63
2016-12-11T02:12:51.027Z,22.66
2016-12-11T02:13:17.015Z,22.64
2016-12-11T02:13:43.003Z,22.64
2016-12-11T02:14:09.016Z,22.64
2016-12-11T02:14:35.006Z,22.66
2016-12-11T02:15:01.002Z,22.6
2016-12-11T02:15:27.004Z,22.6
2016-12-11T02:15:53.004Z,22.61
2016-12-11T02:16:18.989Z,22.54
2016-12-11T02:16:44.969Z,22.63
2016-12-11T02:17:10.953Z,22.64
2016-12-11T02:17:36.938Z,22.63
2016-12-11T02:18:02.922Z,22.64
2016-12-11T02:18:28.906Z,22.69
2016-12-11T02:18:54.891Z,22.52
2016-12-11T02:19:20.877Z,22.61
2016-12-11T02:19:46.861Z,22.57
2016-12-11T02:20:12.846Z,22.63
2016-12-11T02:20:38.831Z,22.63
2016-12-11T02:21:04.816Z,22.66
2016-12-11T02:21:30.836Z,22.59
2016-12-11T02:21:56.814Z,22.61
2016-12-11T02:22:22.801Z,22.61
2016-12-11T02:22:48.802Z,22.64
2016-12-11T02:23:14.780Z,22.63
2016-12-11T02:23:40.791Z,22.55
2016-12-11T02:24:06.776Z,22.57
2016-12-11T02:24:32.792Z,22.51
2016-12-11T02:24:58.797Z,22.52
2016-12-11T02:25:24.794Z,22.61
2016-12-11T02:25:50.765Z,22.59
2016-12-11T02:26:16.747Z,22.59
2016-12-11T02:26:42.746Z,22.64
2016-12-11T02:27:08.731Z,22.57
2016-12-11T02:27:34.721Z,22.6
2016-12-11T02:28:00.704Z,22.59
2016-12-11T02:28:26.690Z,22.54
2016-12-11T02:28:52.679Z,22.55
2016-12-11T02:29:18.792Z,22.63
2016-12-11T02:29:44.776Z,22.61
2016-12-11T02:30:10.760Z,22.63
2016-12-11T02:30:36.744Z,22.55
2016-12-11T02:31:02.732Z,22.55
2016-12-11T02:31:28.718Z,22.6
2016-12-11T02:31:54.701Z,22.55
2016-12-11T02:32:20.688Z,22.59
2016-12-11T02:32:46.672Z,22.59
2016-12-11T02:33:12.659Z,22.6
2016-12-11T02:33:38.675Z,22.63
2016-12-11T02:34:04.633Z,22.57
2016-12-11T02:34:30.620Z,22.59
2016-12-11T02:34:56.606Z,22.64
2016-12-11T02:35:22.595Z,22.52
2016-12-11T02:35:48.580Z,22.63
2016-12-11T02:36:14.565Z,22.59
2016-12-11T02:36:40.547Z,22.63
2016-12-11T02:37:06.536Z,22.55
2016-12-11T02:37:32.530Z,22.57
2016-12-11T02:37:58.504Z,22.59
2016-12-11T02:38:24.492Z,22.55
2016-12-11T02:38:50.477Z,22.55
2016-12-11T02:39:16.462Z,22.55
2016-12-11T02:39:42.453Z,22.52
2016-12-11T02:40:08.443Z,22.57
2016-12-11T02:40:34.426Z,22.54
2016-12-11T02:41:00.409Z,22.54
2016-12-11T02:41:26.397Z,22.57
2016-12-11T02:41:52.382Z,22.57
2016-12-11T02:42:18.371Z,22.57
2016-12-11T02:42:44.355Z,22.55
2016-12-11T02:43:10.370Z,22.55
2016-12-11T02:43:36.353Z,22.55
2016-12-11T02:44:02.338Z,22.59
2016-12-11T02:44:28.322Z,22.6
2016-12-11T02:44:54.308Z,22.57
2016-12-11T02:45:20.298Z,22.57
2016-12-11T02:45:46.333Z,22.57
2016-12-11T02:46:12.318Z,22.55
2016-12-11T02:46:38.302Z,22.57
2016-12-11T02:47:04.286Z,22.54
2016-12-11T02:47:30.273Z,22.54
2016-12-11T02:47:56.271Z,22.61
2016-12-11T02:48:22.260Z,22.52
2016-12-11T02:48:48.256Z,22.57
2016-12-11T02:49:14.241Z,22.55
2016-12-11T02:49:40.223Z,22.54
2016-12-11T02:50:06.208Z,22.54
2016-12-11T02:50:32.193Z,22.52
2016-12-11T02:50:58.178Z,22.55
2016-12-11T02:51:24.178Z,22.57
2016-12-11T02:51:50.193Z,22.55
2016-12-11T02:52:16.151Z,22.57
2016-12-11T02:52:42.134Z,22.54
2016-12-11T02:53:08.118Z,22.54
2016-12-11T02:53:34.115Z,22.6
2016-12-11T02:54:00.101Z,22.59
2016-12-11T02:54:26.084Z,22.6
2016-12-11T02:54:52.070Z,22.66
2016-12-11T02:55:18.066Z,22.54
2016-12-11T02:55:44.055Z,22.54
2016-12-11T02:56:10.068Z,22.6
2016-12-11T02:56:36.070Z,22.54
2016-12-11T02:57:02.055Z,22.52
2016-12-11T02:57:28.056Z,22.59
2016-12-11T02:57:54.066Z,22.6
2016-12-11T02:58:20.083Z,22.51
2016-12-11T02:58:46.082Z,22.52
2016-12-11T02:59:12.073Z,22.55
2016-12-11T02:59:38.077Z,22.57
2016-12-11T03:00:04.085Z,22.52
2016-12-11T03:00:30.075Z,22.57
2016-12-11T03:00:56.063Z,22.55
2016-12-11T03:01:22.047Z,22.59
2016-12-11T03:01:48.033Z,22.51
2016-12-11T03:02:14.015Z,22.55
2016-12-11T03:02:40.002Z,22.59
2016-12-11T03:03:05.985Z,22.52
2016-12-11T03:03:31.973Z,22.51
2016-12-11T03:03:57.957Z,22.51
2016-12-11T03:04:23.936Z,22.52
2016-12-11T03:04:49.920Z,22.55
2016-12-11T03:05:15.914Z,22.57
2016-12-11T03:05:41.914Z,22.54
2016-12-11T03:06:07.995Z,22.6
2016-12-11T03:06:33.993Z,22.51
2016-12-11T03:06:59.975Z,22.59
2016-12-11T03:07:25.956Z,22.52
2016-12-11T03:07:51.939Z,22.52
2016-12-11T03:08:17.924Z,22.54
2016-12-11T03:08:43.911Z,22.6
2016-12-11T03:09:09.901Z,22.52
2016-12-11T03:09:35.889Z,22.51
2016-12-11T03:10:01.873Z,22.54
2016-12-11T03:10:27.860Z,22.52
2016-12-11T03:10:53.846Z,22.57
2016-12-11T03:11:19.831Z,22.54
2016-12-11T03:11:45.813Z,22.51
2016-12-11T03:12:11.798Z,22.52
2016-12-11T03:12:37.784Z,22.51
2016-12-11T03:13:03.768Z,22.55
2016-12-11T03:13:29.752Z,22.52
2016-12-11T03:13:55.745Z,22.54
2016-12-11T03:14:21.732Z,22.52
2016-12-11T03:14:47.719Z,22.55
2016-12-11T03:15:13.702Z,22.52
2016-12-11T03:15:39.700Z,22.52
2016-12-11T03:16:05.701Z,22.55
2016-12-11T03:16:31.683Z,22.54
2016-12-11T03:16:57.668Z,22.57
2016-12-11T03:17:23.650Z,22.54
2016-12-11T03:17:49.666Z,22.55
2016-12-11T03:18:15.653Z,22.52
2016-12-11T03:18:41.637Z,22.6
2016-12-11T03:19:07.619Z,22.54
2016-12-11T03:19:33.610Z,22.59
2016-12-11T03:19:59.599Z,22.52
2016-12-11T03:20:25.586Z,22.52
2016-12-11T03:20:51.572Z,22.55
2016-12-11T03:21:17.557Z,22.55
2016-12-11T03:21:43.543Z,22.51
2016-12-11T03:22:09.527Z,22.52
2016-12-11T03:22:35.514Z,22.49
2016-12-11T03:23:01.523Z,22.54
2016-12-11T03:23:27.512Z,22.55
2016-12-11T03:23:53.495Z,22.6
2016-12-11T03:24:19.489Z,22.59
2016-12-11T03:24:45.475Z,22.49
2016-12-11T03:25:11.461Z,22.54
2016-12-11T03:25:37.445Z,22.55
2016-12-11T03:26:03.440Z,22.48
2016-12-11T03:26:29.431Z,22.49
2016-12-11T03:26:55.449Z,22.52
2016-12-11T03:27:21.436Z,22.49
2016-12-11T03:27:47.420Z,22.45
2016-12-11T03:28:13.406Z,22.51
2016-12-11T03:28:39.431Z,22.49
2016-12-11T03:29:05.413Z,22.46
2016-12-11T03:29:31.397Z,22.57
2016-12-11T03:29:57.381Z,22.49
2016-12-11T03:30:23.374Z,22.57
2016-12-11T03:30:49.358Z,22.52
2016-12-11T03:31:15.346Z,22.54
2016-12-11T03:31:41.362Z,22.49
2016-12-11T03:32:07.354Z,22.52
2016-12-11T03:32:33.338Z,22.57
2016-12-11T03:32:59.352Z,22.52
2016-12-11T03:33:25.369Z,22.54
2016-12-11T03:33:51.380Z,22.49
2016-12-11T03:34:17.358Z,22.54
2016-12-11T03:34:43.355Z,22.49
2016-12-11T03:35:09.342Z,22.55
2016-12-11T03:35:35.384Z,22.49
2016-12-11T03:36:01.368Z,22.49
2016-12-11T03:36:27.353Z,22.48
2016-12-11T03:36:53.348Z,22.54
2016-12-11T03:37:19.336Z,22.49
2016-12-11T03:37:45.317Z,22.49
2016-12-11T03:38:11.333Z,22.51
2016-12-11T03:38:37.321Z,22.46
2016-12-11T03:39:03.302Z,22.46
2016-12-11T03:39:29.288Z,22.45
2016-12-11T03:39:55.273Z,22.49
2016-12-11T03:40:21.256Z,22.44
2016-12-11T03:40:47.239Z,22.45
2016-12-11T03:41:13.222Z,22.46
2016-12-11T03:41:39.207Z,22.51
2016-12-11T03:42:05.193Z,22.51
2016-12-11T03:42:31.176Z,22.49
2016-12-11T03:42:57.165Z,22.49
2016-12-11T03:43:23.156Z,22.45
2016-12-11T03:43:49.149Z,22.45
2016-12-11T03:44:15.133Z,22.49
2016-12-11T03:44:41.114Z,22.49
2016-12-11T03:45:07.101Z,22.51
2016-12-11T03:45:33.087Z,22.46
2016-12-11T03:45:59.072Z,22.49
2016-12-11T03:46:25.059Z,22.45
2016-12-11T03:46:51.044Z,22.54
2016-12-11T03:47:17.026Z,22.49
2016-12-11T03:47:43.018Z,22.54
2016-12-11T03:48:09.004Z,22.46
2016-12-11T03:48:35.004Z,22.49
2016-12-11T03:49:01.001Z,22.51
2016-12-11T03:49:26.985Z,22.49
2016-12-11T03:49:52.974Z,22.46
2016-12-11T03:50:18.971Z,22.49
2016-12-11T03:50:44.967Z,22.51
2016-12-11T03:51:10.956Z,22.49
2016-12-11T03:51:36.940Z,22.46
2016-12-11T03:52:02.921Z,22.51
2016-12-11T03:52:28.912Z,22.51
2016-12-11T03:52:54.892Z,22.48
2016-12-11T03:53:20.898Z,22.46
2016-12-11T03:53:46.910Z,22.45
2016-12-11T03:54:12.926Z,22.45
2016-12-11T03:54:38.910Z,22.45
2016-12-11T03:55:04.895Z,22.49
2016-12-11T03:55:30.880Z,22.45
2016-12-11T03:55:56.892Z,22.51
2016-12-11T03:56:22.880Z,22.46
2016-12-11T03:56:48.862Z,22.46
2016-12-11T03:57:14.851Z,22.45
2016-12-11T03:57:40.838Z,22.49
2016-12-11T03:58:06.819Z,22.48
2016-12-11T03:58:32.813Z,22.49
2016-12-11T03:58:58.798Z,22.46
2016-12-11T03:59:24.783Z,22.52
2016-12-11T03:59:50.774Z,22.48
2016-12-11T04:00:16.768Z,22.48
2016-12-11T04:00:42.752Z,22.44
2016-12-11T04:01:08.737Z,22.51
2016-12-11T04:01:34.723Z,22.45
2016-12-11T04:02:00.707Z,22.46
2016-12-11T04:02:26.690Z,22.44
2016-12-11T04:02:52.672Z,22.51
2016-12-11T04:03:18.660Z,22.49
2016-12-11T04:03:44.646Z,22.55
2016-12-11T04:04:10.630Z,22.49
2016-12-11T04:04:36.610Z,22.45
2016-12-11T04:05:02.612Z,22.48
2016-12-11T04:05:28.599Z,22.45
2016-12-11T04:05:54.585Z,22.51
2016-12-11T04:06:20.586Z,22.46
2016-12-11T04:06:46.578Z,22.48
2016-12-11T04:07:12.559Z,22.46
2016-12-11T04:07:38.554Z,22.48
2016-12-11T04:08:04.550Z,22.46
2016-12-11T04:08:30.534Z,22.39
2016-12-11T04:08:56.506Z,22.41
2016-12-11T04:09:22.492Z,22.45
2016-12-11T04:09:48.483Z,22.44
2016-12-11T04:10:14.488Z,22.54
2016-12-11T04:10:40.468Z,22.45
2016-12-11T04:11:06.450Z,22.51
2016-12-11T04:11:32.435Z,22.46
2016-12-11T04:11:58.422Z,22.46
2016-12-11T04:12:24.405Z,22.48
2016-12-11T04:12:50.394Z,22.46
2016-12-11T04:13:16.390Z,22.44
2016-12-11T04:13:42.375Z,22.45
2016-12-11T04:14:08.364Z,22.44
2016-12-11T04:14:34.345Z,22.46
2016-12-11T04:15:00.333Z,22.48
2016-12-11T04:15:26.320Z,22.49
2016-12-11T04:15:52.314Z,22.45
2016-12-11T04:16:18.304Z,22.39
2016-12-11T04:16:44.293Z,22.39
2016-12-11T04:17:10.275Z,22.46
2016-12-11T04:17:36.260Z,22.45
2016-12-11T04:18:02.244Z,22.46
2016-12-11T04:18:28.229Z,22.48
2016-12-11T04:18:54.213Z,22.44
2016-12-11T04:19:20.205Z,22.46
2016-12-11T04:19:46.202Z,22.45
2016-12-11T04:20:12.187Z,22.46
2016-12-11T04:20:38.174Z,22.44
2016-12-11T04:21:04.156Z,22.44
2016-12-11T04:21:30.145Z,22.36
2016-12-11T04:21:56.126Z,22.48
2016-12-11T04:22:22.113Z,22.46
2016-12-11T04:22:48.097Z,22.45
2016-12-11T04:23:14.082Z,22.45
2016-12-11T04:23:40.071Z,22.39
2016-12-11T04:24:06.053Z,22.42
2016-12-11T04:24:32.038Z,22.45
2016-12-11T04:24:58.023Z,22.42
2016-12-11T04:25:24.012Z,22.46
2016-12-11T04:25:49.997Z,22.46
2016-12-11T04:26:15.986Z,22.46
2016-12-11T04:26:41.971Z,22.41
2016-12-11T04:27:07.971Z,22.42
2016-12-11T04:27:33.956Z,22.45
2016-12-11T04:27:59.998Z,22.42
2016-12-11T04:28:25.980Z,22.41
2016-12-11T04:28:51.967Z,22.36
2016-12-11T04:29:17.948Z,22.45
2016-12-11T04:29:43.930Z,22.45
2016-12-11T04:30:09.916Z,22.48
2016-12-11T04:30:35.899Z,22.36
2016-12-11T04:31:01.897Z,22.41
2016-12-11T04:31:27.897Z,22.44
2016-12-11T04:31:53.889Z,22.45
2016-12-11T04:32:19.869Z,22.46
2016-12-11T04:32:45.856Z,22.44
2016-12-11T04:33:11.836Z,22.44
2016-12-11T04:33:37.856Z,22.33
2016-12-11T04:34:03.838Z,22.44
2016-12-11T04:34:29.839Z,22.33
2016-12-11T04:34:55.842Z,22.46
2016-12-11T04:35:21.835Z,22.41
2016-12-11T04:35:47.826Z,22.44
2016-12-11T04:36:13.810Z,22.46
2016-12-11T04:36:39.797Z,22.42
2016-12-11T04:37:05.781Z,22.42
2016-12-11T04:37:31.768Z,22.39
2016-12-11T04:37:57.754Z,22.41
2016-12-11T04:38:23.817Z,22.44
2016-12-11T04:38:49.793Z,22.45
2016-12-11T04:39:15.776Z,22.46
2016-12-11T04:39:41.761Z,22.38
2016-12-11T04:40:07.747Z,22.38
2016-12-11T04:40:33.729Z,22.39
2016-12-11T04:40:59.713Z,22.39
2016-12-11T04:41:25.697Z,22.44
2016-12-11T04:41:51.680Z,22.45
2016-12-11T04:42:17.664Z,22.44
2016-12-11T04:42:43.652Z,22.46
2016-12-11T04:43:09.640Z,22.41
2016-12-11T04:43:35.631Z,22.34
2016-12-11T04:44:01.653Z,22.36
2016-12-11T04:44:27.655Z,22.44
2016-12-11T04:44:53.676Z,22.39
2016-12-11T04:45:19.661Z,22.34
2016-12-11T04:45:45.678Z,22.36
2016-12-11T04:46:11.681Z,22.42
2016-12-11T04:46:37.657Z,22.36
2016-12-11T04:47:03.647Z,22.41
2016-12-11T04:47:29.632Z,22.39
2016-12-11T04:47:55.614Z,22.39
2016-12-11T04:48:21.613Z,22.39
2016-12-11T04:48:47.600Z,22.42
2016-12-11T04:49:13.607Z,22.38
2016-12-11T04:49:39.567Z,22.42
2016-12-11T04:50:05.549Z,22.38
2016-12-11T04:50:31.531Z,22.42
2016-12-11T04:50:57.519Z,22.36
2016-12-11T04:51:23.513Z,22.42
2016-12-11T04:51:49.499Z,22.38
2016-12-11T04:52:15.483Z,22.38
2016-12-11T04:52:41.468Z,22.39
2016-12-11T04:53:07.456Z,22.39
2016-12-11T04:53:33.439Z,22.39
2016-12-11T04:53:59.424Z,22.33
2016-12-11T04:54:25.409Z,22.33
2016-12-11T04:54:51.395Z,22.34
2016-12-11T04:55:17.414Z,22.38
2016-12-11T04:55:43.400Z,22.33
2016-12-11T04:56:09.384Z,22.39
2016-12-11T04:56:35.367Z,22.27
2016-12-11T04:57:01.352Z,22.3
2016-12-11T04:57:27.346Z,22.33
2016-12-11T04:57:53.328Z,22.27
2016-12-11T04:58:19.316Z,22.33
2016-12-11T04:58:45.299Z,22.26
2016-12-11T04:59:11.286Z,22.29
2016-12-11T04:59:37.271Z,22.29
2016-12-11T05:00:03.269Z,22.34
2016-12-11T05:00:29.252Z,22.3
2016-12-11T05:00:55.235Z,22.31
2016-12-11T05:01:21.239Z,22.26
2016-12-11T05:01:47.231Z,22.33
2016-12-11T05:02:13.218Z,22.31
2016-12-11T05:02:39.200Z,22.31
2016-12-11T05:03:05.186Z,22.31
2016-12-11T05:03:31.181Z,22.27
2016-12-11T05:03:57.168Z,22.23
2016-12-11T05:04:23.153Z,22.39
2016-12-11T05:04:49.138Z,22.33
2016-12-11T05:05:15.140Z,22.31
2016-12-11T05:05:41.107Z,22.31
2016-12-11T05:06:07.093Z,22.29
2016-12-11T05:06:33.091Z,22.29
2016-12-11T05:06:59.079Z,22.31
2016-12-11T05:07:25.064Z,22.36
2016-12-11T05:07:51.048Z,22.33
2016-12-11T05:08:17.031Z,22.27
2016-12-11T05:08:43.016Z,22.3
2016-12-11T05:09:09.000Z,22.3
2016-12-11T05:09:34.983Z,22.31
2016-12-11T05:10:00.972Z,22.31
2016-12-11T05:10:26.956Z,22.39
2016-12-11T05:10:52.944Z,22.34
2016-12-11T05:11:18.927Z,22.27
2016-12-11T05:11:44.911Z,22.27
2016-12-11T05:12:10.900Z,22.27
2016-12-11T05:12:36.900Z,22.29
2016-12-11T05:13:02.899Z,22.3
2016-12-11T05:13:28.869Z,22.36
2016-12-11T05:13:54.854Z,22.3
2016-12-11T05:14:20.841Z,22.33
2016-12-11T05:14:46.822Z,22.27
2016-12-11T05:15:12.805Z,22.31
2016-12-11T05:15:38.789Z,22.31
2016-12-11T05:16:04.775Z,22.31
2016-12-11T05:16:30.761Z,22.31
2016-12-11T05:16:56.748Z,22.33
2016-12-11T05:17:22.762Z,22.31
2016-12-11T05:17:48.748Z,22.31
2016-12-11T05:18:14.755Z,22.27
2016-12-11T05:18:40.722Z,22.29
2016-12-11T05:19:06.713Z,22.3
2016-12-11T05:19:32.722Z,22.27
2016-12-11T05:19:58.728Z,22.3
2016-12-11T05:20:24.727Z,22.3
2016-12-11T05:20:50.731Z,22.27
2016-12-11T05:21:16.712Z,22.27
2016-12-11T05:21:42.705Z,22.34
2016-12-11T05:22:08.729Z,22.34
2016-12-11T05:22:34.728Z,22.27
2016-12-11T05:23:00.716Z,22.29
2016-12-11T05:23:26.707Z,22.27
2016-12-11T05:23:52.688Z,22.27
2016-12-11T05:24:18.673Z,22.33
2016-12-11T05:24:44.657Z,22.3
2016-12-11T05:25:10.669Z,22.3
2016-12-11T05:25:36.656Z,22.27
2016-12-11T05:26:02.645Z,22.33
2016-12-11T05:26:28.630Z,22.33
2016-12-11T05:26:54.610Z,22.34
2016-12-11T05:27:20.595Z,22.27
2016-12-11T05:27:46.575Z,22.27
2016-12-11T05:28:12.584Z,22.27
2016-12-11T05:28:38.570Z,22.26
2016-12-11T05:29:04.551Z,22.34
2016-12-11T05:29:30.538Z,22.34
2016-12-11T05:29:56.525Z,22.29
2016-12-11T05:30:22.520Z,22.29
2016-12-11T05:30:48.518Z,22.3
2016-12-11T05:31:14.498Z,22.3
2016-12-11T05:31:40.478Z,22.3
2016-12-11T05:32:06.461Z,22.29
2016-12-11T05:32:32.443Z,22.34
2016-12-11T05:32:58.430Z,22.26
2016-12-11T05:33:24.415Z,22.29
2016-12-11T05:33:50.397Z,22.29
2016-12-11T05:34:16.380Z,22.26
2016-12-11T05:34:42.368Z,22.29
2016-12-11T05:35:08.350Z,22.29
2016-12-11T05:35:34.340Z,22.27